Time;durP1;ratioP1;P1;durP2;ratioP2;P2;SDS_P1;SDS_P2;PMS_P1;PMS_P2;Temp;Humidity;BMP_temperature;BMP_pressure;BME280_temperature;BME280_humidity;BME280_pressure;Samples;Min_cycle;Max_cycle;Signal;HPM_P1;HPM_P2
2022/02/11 00:00:38;;;;;;;0.20;0.20;;;;;;;;;;4998396;28;20518;-68
2022/02/11 00:08:12;;;;;;;0.43;0.43;;;;;;;;;;4998642;28;20105;-68
2022/02/11 00:10:37;;;;;;;0.60;0.60;;;;;;;;;;4993615;28;20138;-68
2022/02/11 00:13:03;;;;;;;0.40;0.40;;;;;;;;;;4991368;28;20071;-68
2022/02/11 00:15:40;;;;;;;2.15;0.70;;;;;;;;;;4981028;28;20106;-68
2022/02/11 00:18:06;;;;;;;0.63;0.52;;;;;;;;;;4991872;28;20193;-68
2022/02/11 00:20:31;;;;;;;1.52;1.33;;;;;;;;;;4985925;28;20201;-68
2022/02/11 00:22:56;;;;;;;1.57;1.10;;;;;;;;;;4985184;28;20254;-68
2022/02/11 00:25:22;;;;;;;1.10;1.10;;;;;;;;;;4985704;28;20110;-68
2022/02/11 00:38:11;;;;;;;0.82;0.82;;;;;;;;;;4993235;28;20448;-68
2022/02/11 01:04:24;;;;;;;3.70;1.67;;;;;;;;;;5006085;28;20506;-68
2022/02/11 01:06:49;;;;;;;5.13;2.10;;;;;;;;;;5004747;28;20230;-68
2022/02/11 01:09:14;;;;;;;2.40;1.97;;;;;;;;;;5005039;28;20090;-68
2022/02/11 01:14:11;;;;;;;2.50;2.05;;;;;;;;;;4996500;28;20106;-67
2022/02/11 01:16:45;;;;;;;2.95;1.90;;;;;;;;;;4990037;28;20102;-67
2022/02/11 01:19:21;;;;;;;2.28;1.75;;;;;;;;;;4994788;28;20178;-66
2022/02/11 01:27:33;;;;;;;1.50;1.30;;;;;;;;;;4995612;28;20175;-66
2022/02/11 01:30:19;;;;;;;1.40;1.02;;;;;;;;;;4991826;28;20161;-66
2022/02/11 01:35:28;;;;;;;1.92;1.80;;;;;;;;;;4995890;28;20117;-66
2022/02/11 01:38:23;;;;;;;1.25;1.20;;;;;;;;;;5002155;28;20117;-66
2022/02/11 02:10:09;;;;;;;3.08;0.80;;;;;;;;;;4998046;28;20503;-68
2022/02/11 02:27:32;;;;;;;5.53;1.43;;;;;;;;;;4996049;28;20099;-66
2022/02/11 02:43:30;;;;;;;31.65;2.38;;;;;;;;;;4990943;28;20125;-68
2022/02/11 02:57:03;;;;;;;3.90;3.03;;;;;;;;;;4994496;28;20176;-67
2022/02/11 03:00:17;;;;;;;5.97;3.63;;;;;;;;;;5000521;28;20105;-67
2022/02/11 04:26:13;;;;;;;8.10;4.13;;;;;;;;;;5011123;28;20109;-68
2022/02/11 04:55:37;;;;;;;10.85;5.68;;;;;;;;;;4982734;28;20110;-66
2022/02/11 05:00:46;;;;;;;13.48;6.15;;;;;;;;;;4972396;28;20475;-67
2022/02/11 05:03:11;;;;;;;11.83;7.33;;;;;;;;;;4986242;28;20107;-67
2022/02/11 05:05:49;;;;;;;9.80;5.80;;;;;;;;;;4991010;28;20106;-67
2022/02/11 05:08:32;;;;;;;13.43;5.97;;;;;;;;;;5002090;28;20066;-67
2022/02/11 05:10:58;;;;;;;13.90;6.50;;;;;;;;;;5004113;28;20098;-67
2022/02/11 05:13:23;;;;;;;10.03;4.10;;;;;;;;;;5003456;28;20101;-67
2022/02/11 05:15:48;;;;;;;8.07;4.65;;;;;;;;;;4998426;28;20763;-67
2022/02/11 05:18:14;;;;;;;9.23;4.47;;;;;;;;;;5001424;28;20114;-67
2022/02/11 05:20:39;;;;;;;14.83;7.50;;;;;;;;;;4996793;28;20118;-67
2022/02/11 05:23:07;;;;;;;10.43;6.13;;;;;;;;;;4999205;28;20203;-67
2022/02/11 05:25:39;;;;;;;11.25;5.82;;;;;;;;;;4996747;28;20102;-67
2022/02/11 05:28:05;;;;;;;10.20;5.05;;;;;;;;;;5000720;28;20098;-67
2022/02/11 05:30:30;;;;;;;11.00;5.85;;;;;;;;;;4998778;28;20141;-67
2022/02/11 05:32:56;;;;;;;8.73;4.45;;;;;;;;;;4999336;28;20098;-67
2022/02/11 05:35:21;;;;;;;8.95;5.13;;;;;;;;;;5000424;28;20103;-67
2022/02/11 05:37:46;;;;;;;10.10;5.43;;;;;;;;;;5006802;28;20376;-67
2022/02/11 05:40:12;;;;;;;8.93;4.87;;;;;;;;;;5003446;28;20083;-67
2022/02/11 05:42:37;;;;;;;10.20;5.50;;;;;;;;;;5005376;28;20113;-67
2022/02/11 05:45:02;;;;;;;11.80;5.13;;;;;;;;;;4998559;28;20336;-67
2022/02/11 05:47:27;;;;;;;11.73;6.10;;;;;;;;;;4998715;28;20074;-67
2022/02/11 05:49:53;;;;;;;11.37;6.13;;;;;;;;;;5013639;28;20401;-67
2022/02/11 05:52:18;;;;;;;8.77;4.63;;;;;;;;;;4994810;28;20109;-67
2022/02/11 05:54:43;;;;;;;16.70;5.77;;;;;;;;;;5002516;28;20353;-67
2022/02/11 05:57:08;;;;;;;9.07;5.73;;;;;;;;;;5003520;28;20443;-65
2022/02/11 05:59:34;;;;;;;8.68;4.57;;;;;;;;;;4993403;28;20396;-65
2022/02/11 06:01:59;;;;;;;11.67;6.20;;;;;;;;;;5004550;28;20156;-65
2022/02/11 06:04:24;;;;;;;9.43;4.43;;;;;;;;;;4990920;28;20129;-66
2022/02/11 06:06:53;;;;;;;14.88;5.30;;;;;;;;;;5002470;28;20118;-66
2022/02/11 06:09:22;;;;;;;7.65;4.15;;;;;;;;;;5006775;28;20408;-66
2022/02/11 06:11:47;;;;;;;8.85;5.53;;;;;;;;;;5009909;28;20633;-67
2022/02/11 06:14:13;;;;;;;7.53;4.40;;;;;;;;;;4998460;28;20106;-67
2022/02/11 06:16:38;;;;;;;8.68;5.50;;;;;;;;;;4991611;28;20356;-67
2022/02/11 06:19:03;;;;;;;7.60;4.30;;;;;;;;;;5004416;28;20688;-67
2022/02/11 06:21:28;;;;;;;10.97;4.67;;;;;;;;;;4998691;28;20120;-67
2022/02/11 06:23:55;;;;;;;12.50;5.53;;;;;;;;;;4996659;28;20154;-67
2022/02/11 06:26:21;;;;;;;13.27;5.50;;;;;;;;;;5000457;28;20172;-67
2022/02/11 06:28:47;;;;;;;8.90;4.97;;;;;;;;;;5001818;28;20605;-68
2022/02/11 06:31:13;;;;;;;9.77;5.10;;;;;;;;;;4997289;28;20597;-68
2022/02/11 06:33:38;;;;;;;8.43;5.10;;;;;;;;;;4996335;28;20292;-67
2022/02/11 06:36:03;;;;;;;9.87;4.13;;;;;;;;;;4990855;28;20786;-67
2022/02/11 06:38:29;;;;;;;9.40;5.10;;;;;;;;;;5004034;28;20350;-68
2022/02/11 06:40:54;;;;;;;5.33;3.30;;;;;;;;;;5005028;28;20370;-67
2022/02/11 06:43:20;;;;;;;9.02;4.38;;;;;;;;;;5001840;28;20207;-67
2022/02/11 06:45:45;;;;;;;12.60;6.00;;;;;;;;;;4999720;28;20173;-67
2022/02/11 06:48:11;;;;;;;12.63;6.00;;;;;;;;;;5003764;28;20431;-68
2022/02/11 06:50:36;;;;;;;10.70;4.68;;;;;;;;;;5003302;28;20154;-67
2022/02/11 06:53:02;;;;;;;8.53;5.00;;;;;;;;;;5016746;28;20082;-67
2022/02/11 06:55:27;;;;;;;10.87;5.37;;;;;;;;;;5003821;28;20723;-68
2022/02/11 06:57:52;;;;;;;14.57;5.37;;;;;;;;;;5011167;28;20629;-68
2022/02/11 07:00:18;;;;;;;11.30;4.17;;;;;;;;;;4996105;28;20365;-68
2022/02/11 07:02:43;;;;;;;7.75;4.50;;;;;;;;;;5008991;28;20102;-68
2022/02/11 07:05:09;;;;;;;9.50;5.10;;;;;;;;;;4998399;28;20083;-68
2022/02/11 07:07:34;;;;;;;8.23;3.95;;;;;;;;;;4999265;28;20920;-68
2022/02/11 07:09:59;;;;;;;6.73;3.63;;;;;;;;;;5003579;28;20110;-68
2022/02/11 07:12:24;;;;;;;8.07;4.50;;;;;;;;;;5007107;28;20630;-68
2022/02/11 07:14:49;;;;;;;10.13;3.63;;;;;;;;;;4990450;28;20461;-68
2022/02/11 07:17:15;;;;;;;9.07;5.13;;;;;;;;;;5003076;28;20144;-67
2022/02/11 07:19:40;;;;;;;8.10;3.67;;;;;;;;;;4992681;28;20075;-68
2022/02/11 07:22:05;;;;;;;8.50;3.63;;;;;;;;;;5001214;28;20651;-67
2022/02/11 07:24:30;;;;;;;11.57;4.00;;;;;;;;;;5002922;28;20151;-67
2022/02/11 07:26:56;;;;;;;8.27;4.00;;;;;;;;;;5001047;28;20106;-67
2022/02/11 07:29:21;;;;;;;11.47;4.50;;;;;;;;;;5000824;28;20134;-67
2022/02/11 07:31:46;;;;;;;7.70;4.47;;;;;;;;;;5002422;28;20084;-68
2022/02/11 07:34:11;;;;;;;9.73;5.33;;;;;;;;;;4995003;28;20109;-67
2022/02/11 07:36:36;;;;;;;10.53;5.67;;;;;;;;;;4992936;28;20098;-67
2022/02/11 07:39:02;;;;;;;14.47;5.83;;;;;;;;;;4997057;28;20098;-67
2022/02/11 07:41:27;;;;;;;12.43;5.85;;;;;;;;;;4999159;28;20140;-67
2022/02/11 07:43:52;;;;;;;13.17;6.63;;;;;;;;;;4997154;28;20518;-68
2022/02/11 07:46:18;;;;;;;13.03;5.50;;;;;;;;;;4999212;28;20098;-68
2022/02/11 07:48:43;;;;;;;7.13;3.83;;;;;;;;;;5001146;28;20148;-68
2022/02/11 07:51:08;;;;;;;13.33;5.80;;;;;;;;;;4998511;28;20102;-68
2022/02/11 07:53:34;;;;;;;14.90;5.47;;;;;;;;;;5003506;28;20098;-69
2022/02/11 07:56:00;;;;;;;15.13;6.03;;;;;;;;;;5005543;28;20082;-68
2022/02/11 07:58:26;;;;;;;9.90;5.20;;;;;;;;;;5003139;28;20658;-68
2022/02/11 08:00:51;;;;;;;13.65;6.22;;;;;;;;;;5002570;28;20106;-68
2022/02/11 08:03:17;;;;;;;15.90;6.77;;;;;;;;;;5005435;28;20511;-68
2022/02/11 08:05:43;;;;;;;14.02;5.68;;;;;;;;;;5005282;28;20345;-69
2022/02/11 08:08:09;;;;;;;18.02;5.50;;;;;;;;;;5005840;28;20420;-69
2022/02/11 08:10:34;;;;;;;16.35;5.90;;;;;;;;;;4990111;28;20105;-69
2022/02/11 08:12:59;;;;;;;14.27;5.72;;;;;;;;;;4998772;28;20504;-69
2022/02/11 08:15:25;;;;;;;16.40;6.13;;;;;;;;;;4995615;28;20535;-69
2022/02/11 08:17:50;;;;;;;14.43;6.20;;;;;;;;;;5004953;28;20367;-69
2022/02/11 08:20:15;;;;;;;14.00;4.70;;;;;;;;;;4995596;28;20115;-69
2022/02/11 08:22:40;;;;;;;13.00;4.87;;;;;;;;;;5003452;28;20481;-68
2022/02/11 08:25:06;;;;;;;14.97;6.37;;;;;;;;;;5004315;28;20428;-67
2022/02/11 08:27:31;;;;;;;13.50;5.97;;;;;;;;;;4990641;28;20587;-68
2022/02/11 08:29:57;;;;;;;12.82;5.47;;;;;;;;;;4994787;28;20489;-67
2022/02/11 08:32:24;;;;;;;14.37;5.63;;;;;;;;;;4993730;28;20128;-68
2022/02/11 08:34:49;;;;;;;14.63;5.63;;;;;;;;;;5007527;28;20349;-68
2022/02/11 08:37:14;;;;;;;19.88;5.40;;;;;;;;;;4999743;28;20090;-68
2022/02/11 08:39:40;;;;;;;9.33;4.80;;;;;;;;;;5000358;28;20489;-68
2022/02/11 08:42:06;;;;;;;14.30;5.28;;;;;;;;;;4998150;28;20353;-67
2022/02/11 08:44:31;;;;;;;10.40;4.60;;;;;;;;;;5000218;28;20432;-67
2022/02/11 08:46:57;;;;;;;11.80;5.07;;;;;;;;;;5000921;28;20113;-67
2022/02/11 08:49:22;;;;;;;10.00;4.50;;;;;;;;;;5000045;28;20313;-67
2022/02/11 08:51:47;;;;;;;15.30;5.13;;;;;;;;;;5007990;28;20117;-67
2022/02/11 08:54:12;;;;;;;15.33;5.07;;;;;;;;;;5001381;28;20345;-67
2022/02/11 08:56:39;;;;;;;15.30;4.93;;;;;;;;;;4992795;28;20071;-67
2022/02/11 08:59:05;;;;;;;16.38;5.47;;;;;;;;;;4988523;28;20307;-67
2022/02/11 09:01:30;;;;;;;14.73;4.90;;;;;;;;;;4997920;28;20098;-67
2022/02/11 09:03:55;;;;;;;14.57;5.37;;;;;;;;;;5000110;28;20368;-67
2022/02/11 09:06:21;;;;;;;15.55;5.20;;;;;;;;;;4991607;28;20486;-67
2022/02/11 09:08:46;;;;;;;14.43;4.60;;;;;;;;;;4991010;28;20178;-67
2022/02/11 09:11:19;;;;;;;12.07;4.20;;;;;;;;;;4991654;28;20357;-66
2022/02/11 09:13:44;;;;;;;9.10;3.45;;;;;;;;;;4997232;28;20114;-66
2022/02/11 09:16:10;;;;;;;13.23;4.57;;;;;;;;;;4998331;28;20491;-66
2022/02/11 09:18:36;;;;;;;8.47;3.87;;;;;;;;;;4998609;28;20168;-67
2022/02/11 09:21:01;;;;;;;13.05;4.57;;;;;;;;;;4999593;28;20937;-67
2022/02/11 09:23:27;;;;;;;11.77;3.17;;;;;;;;;;4998606;28;20161;-67
2022/02/11 09:25:52;;;;;;;8.47;3.13;;;;;;;;;;4999295;28;20394;-66
2022/02/11 09:28:17;;;;;;;9.77;3.67;;;;;;;;;;5004532;28;21088;-67
2022/02/11 09:30:43;;;;;;;5.70;2.40;;;;;;;;;;4998200;28;20357;-67
2022/02/11 09:33:08;;;;;;;8.07;3.10;;;;;;;;;;4997825;28;20162;-67
2022/02/11 09:35:34;;;;;;;13.73;3.53;;;;;;;;;;4999637;28;20537;-66
2022/02/11 09:37:59;;;;;;;7.05;3.15;;;;;;;;;;4996527;28;20114;-67
2022/02/11 09:40:24;;;;;;;10.53;3.10;;;;;;;;;;5007437;28;20483;-67
2022/02/11 09:42:51;;;;;;;8.90;3.23;;;;;;;;;;5009126;28;20467;-65
2022/02/11 09:45:18;;;;;;;10.52;3.05;;;;;;;;;;5004398;28;20341;-65
2022/02/11 09:47:43;;;;;;;8.95;3.17;;;;;;;;;;4992291;28;20066;-67
2022/02/11 09:50:08;;;;;;;12.80;3.83;;;;;;;;;;4998747;28;20553;-66
2022/02/11 09:52:41;;;;;;;10.63;3.92;;;;;;;;;;4988968;28;20071;-66
2022/02/11 09:57:50;;;;;;;10.65;4.05;;;;;;;;;;4990728;28;20326;-65
2022/02/11 10:00:16;;;;;;;16.20;4.60;;;;;;;;;;5005970;28;20408;-65
2022/02/11 10:02:54;;;;;;;10.93;3.95;;;;;;;;;;4999486;28;20106;-63
2022/02/11 10:05:26;;;;;;;10.63;3.33;;;;;;;;;;4999468;28;20193;-63
2022/02/11 10:07:51;;;;;;;10.27;3.75;;;;;;;;;;4996239;28;20073;-63
2022/02/11 10:10:38;;;;;;;15.43;3.58;;;;;;;;;;4993147;28;20103;-65
2022/02/11 10:13:02;;;;;;;13.65;3.83;;;;;;;;;;4996331;28;20074;-65
2022/02/11 10:15:28;;;;;;;10.77;2.53;;;;;;;;;;4995710;28;20082;-65
2022/02/11 10:17:56;;;;;;;12.93;2.83;;;;;;;;;;4992189;28;20197;-64
2022/02/11 10:20:21;;;;;;;13.32;3.85;;;;;;;;;;4997512;28;21248;-63
2022/02/11 10:22:46;;;;;;;13.93;3.50;;;;;;;;;;4999312;28;20106;-66
2022/02/11 10:25:11;;;;;;;15.87;3.80;;;;;;;;;;4998519;28;20091;-66
2022/02/11 10:27:37;;;;;;;13.48;3.55;;;;;;;;;;5011600;28;20278;-64
2022/02/11 10:30:03;;;;;;;11.77;3.10;;;;;;;;;;4987553;28;20185;-64
2022/02/11 10:32:35;;;;;;;14.75;4.07;;;;;;;;;;5003715;28;20492;-64
2022/02/11 10:35:00;;;;;;;8.70;2.75;;;;;;;;;;4995197;28;20531;-66
2022/02/11 10:37:25;;;;;;;13.57;3.37;;;;;;;;;;4999362;28;20122;-63
2022/02/11 10:39:57;;;;;;;9.47;2.63;;;;;;;;;;5000066;28;20116;-66
2022/02/11 10:42:23;;;;;;;12.50;3.38;;;;;;;;;;4998800;28;20418;-66
2022/02/11 10:44:48;;;;;;;9.75;3.03;;;;;;;;;;4986521;28;20071;-65
2022/02/11 10:47:15;;;;;;;14.90;3.73;;;;;;;;;;4989769;28;20120;-66
2022/02/11 10:49:43;;;;;;;10.43;3.45;;;;;;;;;;4995957;28;20717;-65
2022/02/11 10:52:16;;;;;;;17.73;3.50;;;;;;;;;;4998928;28;20067;-66
2022/02/11 10:54:41;;;;;;;11.07;4.03;;;;;;;;;;5008640;28;20245;-65
2022/02/11 10:57:09;;;;;;;12.00;2.90;;;;;;;;;;4988976;28;20536;-65
2022/02/11 10:59:35;;;;;;;13.45;3.45;;;;;;;;;;5002056;28;20450;-64
2022/02/11 11:02:01;;;;;;;10.60;2.72;;;;;;;;;;4998401;28;20519;-63
2022/02/11 11:04:26;;;;;;;8.98;3.45;;;;;;;;;;5002186;28;20441;-63
2022/02/11 11:06:53;;;;;;;15.30;3.03;;;;;;;;;;5006105;28;20097;-61
2022/02/11 11:09:19;;;;;;;12.00;2.92;;;;;;;;;;4995621;28;20513;-62
2022/02/11 11:11:44;;;;;;;14.32;3.85;;;;;;;;;;5002353;28;20079;-63
2022/02/11 11:14:12;;;;;;;10.90;2.73;;;;;;;;;;4997030;28;20733;-62
2022/02/11 11:16:37;;;;;;;15.27;3.50;;;;;;;;;;4993436;28;20727;-62
2022/02/11 11:19:02;;;;;;;16.83;4.23;;;;;;;;;;5000271;28;20595;-62
2022/02/11 11:21:28;;;;;;;16.65;3.47;;;;;;;;;;5000158;28;20396;-61
2022/02/11 11:23:53;;;;;;;17.95;4.18;;;;;;;;;;4998761;28;20113;-62
2022/02/11 11:26:19;;;;;;;14.65;3.83;;;;;;;;;;5008091;28;20196;-62
2022/02/11 11:28:44;;;;;;;15.88;3.72;;;;;;;;;;4999549;28;20066;-62
2022/02/11 11:31:10;;;;;;;14.40;3.45;;;;;;;;;;4996439;28;20094;-62
2022/02/11 11:33:35;;;;;;;12.65;3.25;;;;;;;;;;4996392;28;20502;-62
2022/02/11 11:36:03;;;;;;;15.17;3.67;;;;;;;;;;5004918;28;20075;-62
2022/02/11 11:38:38;;;;;;;16.60;4.00;;;;;;;;;;5010364;28;20368;-62
2022/02/11 11:41:10;;;;;;;13.02;2.67;;;;;;;;;;4991734;28;20093;-62
2022/02/11 11:43:45;;;;;;;14.48;3.83;;;;;;;;;;4988726;28;20086;-61
2022/02/11 11:46:14;;;;;;;14.02;3.42;;;;;;;;;;4997469;28;20372;-62
2022/02/11 11:48:40;;;;;;;12.30;2.92;;;;;;;;;;4990133;28;20071;-62
2022/02/11 11:51:06;;;;;;;14.00;3.28;;;;;;;;;;4987254;28;20094;-61
2022/02/11 11:53:31;;;;;;;13.33;2.90;;;;;;;;;;4988031;28;20297;-62
2022/02/11 11:55:56;;;;;;;14.43;3.33;;;;;;;;;;5006808;28;20096;-64
2022/02/11 11:58:28;;;;;;;11.17;2.17;;;;;;;;;;4990781;28;20361;-64
2022/02/11 12:01:00;;;;;;;11.82;2.40;;;;;;;;;;4987414;28;20129;-65
2022/02/11 12:03:25;;;;;;;13.70;3.00;;;;;;;;;;4997067;28;20572;-65
2022/02/11 12:05:53;;;;;;;12.85;2.38;;;;;;;;;;4985386;28;20109;-65
2022/02/11 12:08:18;;;;;;;9.68;2.40;;;;;;;;;;4985599;28;20098;-65
2022/02/11 12:10:47;;;;;;;13.88;3.15;;;;;;;;;;4994559;28;20589;-65
2022/02/11 12:13:13;;;;;;;13.50;3.15;;;;;;;;;;4994316;28;20083;-63
2022/02/11 12:15:38;;;;;;;10.07;2.70;;;;;;;;;;4990029;28;20102;-63
2022/02/11 12:18:03;;;;;;;10.77;2.87;;;;;;;;;;4992040;28;20121;-65
2022/02/11 12:20:29;;;;;;;15.10;2.85;;;;;;;;;;5005621;28;20122;-66
2022/02/11 12:28:22;;;;;;;17.13;3.60;;;;;;;;;;4994259;28;20594;-66
2022/02/11 12:30:47;;;;;;;20.20;4.20;;;;;;;;;;4994747;28;20087;-66
2022/02/11 12:33:12;;;;;;;11.90;2.88;;;;;;;;;;4998343;28;20471;-66
2022/02/11 12:35:38;;;;;;;18.07;3.20;;;;;;;;;;4998920;28;20443;-66
2022/02/11 12:38:04;;;;;;;20.98;2.60;;;;;;;;;;4996370;28;20111;-66
2022/02/11 12:40:31;;;;;;;13.48;3.30;;;;;;;;;;4998124;28;20082;-66
2022/02/11 12:42:57;;;;;;;12.55;1.98;;;;;;;;;;4999344;28;20104;-66
2022/02/11 12:45:24;;;;;;;9.27;2.60;;;;;;;;;;5000577;28;20471;-65
2022/02/11 12:47:51;;;;;;;10.95;2.67;;;;;;;;;;4997301;28;20075;-64
2022/02/11 12:50:16;;;;;;;16.10;3.40;;;;;;;;;;5000595;28;20557;-64
2022/02/11 12:52:41;;;;;;;16.10;3.20;;;;;;;;;;4999339;28;20125;-65
2022/02/11 12:55:16;;;;;;;10.20;2.57;;;;;;;;;;4999665;28;20863;-66
2022/02/11 12:57:42;;;;;;;9.85;2.72;;;;;;;;;;4986583;28;20522;-66
2022/02/11 13:00:08;;;;;;;11.07;3.10;;;;;;;;;;5001224;28;20556;-66
2022/02/11 13:02:33;;;;;;;10.02;2.45;;;;;;;;;;5000465;28;20165;-65
2022/02/11 13:05:12;;;;;;;8.20;2.22;;;;;;;;;;5000950;28;20102;-66
2022/02/11 13:07:44;;;;;;;7.57;2.27;;;;;;;;;;5001234;28;20152;-66
2022/02/11 13:10:10;;;;;;;7.95;1.80;;;;;;;;;;5000517;28;20514;-66
2022/02/11 13:12:39;;;;;;;10.45;1.67;;;;;;;;;;5000262;28;20078;-66
2022/02/11 13:15:05;;;;;;;11.88;2.75;;;;;;;;;;5003287;28;20098;-66
2022/02/11 13:17:30;;;;;;;5.80;1.48;;;;;;;;;;5001032;28;20117;-66
2022/02/11 13:20:09;;;;;;;11.93;3.10;;;;;;;;;;4985592;28;20129;-66
2022/02/11 13:22:34;;;;;;;12.25;2.65;;;;;;;;;;4993952;28;20109;-62
2022/02/11 13:24:59;;;;;;;8.93;2.50;;;;;;;;;;4992293;28;20124;-66
2022/02/11 13:27:45;;;;;;;7.10;2.27;;;;;;;;;;4992454;28;20201;-66
2022/02/11 13:30:11;;;;;;;9.52;2.70;;;;;;;;;;4988796;28;20102;-64
2022/02/11 13:32:36;;;;;;;10.35;2.28;;;;;;;;;;4994746;28;20071;-66
2022/02/11 13:35:05;;;;;;;7.67;2.27;;;;;;;;;;4989440;28;20616;-64
2022/02/11 13:37:37;;;;;;;9.35;2.78;;;;;;;;;;4993904;28;20607;-64
2022/02/11 13:40:12;;;;;;;6.28;2.22;;;;;;;;;;4980357;28;20263;-66
2022/02/11 13:42:37;;;;;;;11.20;2.97;;;;;;;;;;4984906;28;20117;-65
2022/02/11 13:45:03;;;;;;;12.13;3.10;;;;;;;;;;4988571;28;20494;-65
2022/02/11 13:47:28;;;;;;;10.52;2.20;;;;;;;;;;4994013;28;20090;-66
2022/02/11 13:50:00;;;;;;;8.20;1.97;;;;;;;;;;4991339;28;20110;-66
2022/02/11 13:55:11;;;;;;;7.60;2.60;;;;;;;;;;4999928;28;20120;-66
2022/02/11 13:57:36;;;;;;;8.60;2.50;;;;;;;;;;4996094;28;20103;-65
2022/02/11 14:00:20;;;;;;;6.97;2.50;;;;;;;;;;4994965;28;20094;-66
2022/02/11 14:02:45;;;;;;;6.05;2.03;;;;;;;;;;4998218;28;20094;-65
2022/02/11 14:05:10;;;;;;;10.90;2.43;;;;;;;;;;4997234;28;20428;-65
2022/02/11 14:07:36;;;;;;;7.83;2.30;;;;;;;;;;4994897;28;20434;-65
2022/02/11 14:10:16;;;;;;;6.73;2.13;;;;;;;;;;4990553;28;20479;-65
2022/02/11 14:12:41;;;;;;;9.20;2.38;;;;;;;;;;4995752;28;20483;-65
2022/02/11 14:15:07;;;;;;;10.53;2.70;;;;;;;;;;4995153;28;20161;-66
2022/02/11 14:17:34;;;;;;;9.40;2.58;;;;;;;;;;4998463;28;20463;-66
2022/02/11 14:20:00;;;;;;;9.68;2.20;;;;;;;;;;4994292;28;20113;-65
2022/02/11 14:22:25;;;;;;;7.68;2.28;;;;;;;;;;4995483;28;20423;-65
2022/02/11 14:24:50;;;;;;;10.40;2.70;;;;;;;;;;4993844;28;20409;-66
2022/02/11 14:27:15;;;;;;;5.60;2.60;;;;;;;;;;5010259;28;20407;-65
2022/02/11 14:29:41;;;;;;;9.93;2.13;;;;;;;;;;4987091;28;20156;-66
2022/02/11 14:32:06;;;;;;;5.72;1.98;;;;;;;;;;5015379;28;20387;-65
2022/02/11 14:34:32;;;;;;;10.57;1.90;;;;;;;;;;5001317;28;20098;-65
2022/02/11 14:36:57;;;;;;;4.00;1.85;;;;;;;;;;4985811;28;20078;-65
2022/02/11 14:39:22;;;;;;;7.20;1.73;;;;;;;;;;4999092;28;20463;-66
2022/02/11 14:41:48;;;;;;;10.93;2.70;;;;;;;;;;4995171;28;20663;-65
2022/02/11 14:44:27;;;;;;;11.88;3.10;;;;;;;;;;5004811;28;20067;-66
2022/02/11 14:46:54;;;;;;;11.50;2.37;;;;;;;;;;5003098;28;20445;-66
2022/02/11 14:49:20;;;;;;;3.90;2.40;;;;;;;;;;4985906;28;20537;-66
2022/02/11 14:51:46;;;;;;;6.65;2.40;;;;;;;;;;5011209;28;20165;-66
2022/02/11 14:54:11;;;;;;;10.02;2.50;;;;;;;;;;4993589;28;20494;-66
2022/02/11 14:56:37;;;;;;;10.73;2.10;;;;;;;;;;5010225;28;20085;-66
2022/02/11 14:59:02;;;;;;;6.38;2.03;;;;;;;;;;4991685;28;20435;-66
2022/02/11 15:01:27;;;;;;;7.95;2.33;;;;;;;;;;5013875;28;20498;-65
2022/02/11 15:03:52;;;;;;;8.50;2.30;;;;;;;;;;5006914;28;20070;-66
2022/02/11 15:06:18;;;;;;;11.27;2.53;;;;;;;;;;4991380;28;20102;-65
2022/02/11 15:08:43;;;;;;;8.07;2.10;;;;;;;;;;4998972;28;20460;-65
2022/02/11 15:11:08;;;;;;;6.87;1.90;;;;;;;;;;4998652;28;20387;-66
2022/02/11 15:13:34;;;;;;;6.57;1.75;;;;;;;;;;4988148;28;20161;-65
2022/02/11 15:15:59;;;;;;;3.58;1.67;;;;;;;;;;4996188;28;20618;-63
2022/02/11 15:18:24;;;;;;;8.87;2.40;;;;;;;;;;4999951;28;20114;-63
2022/02/11 15:20:49;;;;;;;5.82;2.17;;;;;;;;;;4994963;28;20146;-63
2022/02/11 15:23:15;;;;;;;12.83;5.13;;;;;;;;;;4996144;28;20138;-64
2022/02/11 15:25:40;;;;;;;6.43;1.90;;;;;;;;;;4988510;28;20202;-64
2022/02/11 15:28:05;;;;;;;8.30;2.47;;;;;;;;;;4997764;28;20258;-64
2022/02/11 15:30:31;;;;;;;7.53;2.23;;;;;;;;;;4986186;28;20546;-64
2022/02/11 15:32:57;;;;;;;4.00;1.60;;;;;;;;;;5009776;28;20114;-64
2022/02/11 15:35:24;;;;;;;6.97;2.45;;;;;;;;;;4994434;28;20569;-65
2022/02/11 15:37:50;;;;;;;3.30;1.80;;;;;;;;;;4993828;28;20118;-65
2022/02/11 15:40:15;;;;;;;8.93;2.20;;;;;;;;;;4998591;28;20088;-65
2022/02/11 15:42:40;;;;;;;9.17;1.90;;;;;;;;;;4985821;28;20185;-65
2022/02/11 15:45:06;;;;;;;7.73;2.00;;;;;;;;;;5001133;28;20204;-65
2022/02/11 15:47:31;;;;;;;12.98;1.95;;;;;;;;;;4998993;28;20090;-66
2022/02/11 15:49:56;;;;;;;3.67;1.27;;;;;;;;;;4997554;28;20220;-65
2022/02/11 15:52:22;;;;;;;5.53;1.73;;;;;;;;;;4996629;28;20086;-66
2022/02/11 15:54:47;;;;;;;5.82;1.60;;;;;;;;;;4987448;28;20114;-65
2022/02/11 15:57:13;;;;;;;7.70;1.73;;;;;;;;;;5009370;28;20082;-66
2022/02/11 15:59:38;;;;;;;8.18;1.65;;;;;;;;;;4997887;28;20742;-66
2022/02/11 16:02:05;;;;;;;5.40;1.23;;;;;;;;;;5000966;28;20613;-66
2022/02/11 16:04:33;;;;;;;12.20;2.30;;;;;;;;;;5009979;28;20376;-66
2022/02/11 16:06:58;;;;;;;4.75;1.80;;;;;;;;;;5003491;28;20098;-66
2022/02/11 16:09:24;;;;;;;10.65;3.72;;;;;;;;;;5001340;28;20105;-66
2022/02/11 16:11:49;;;;;;;6.77;1.70;;;;;;;;;;5000395;28;20424;-66
2022/02/11 16:14:16;;;;;;;8.32;1.90;;;;;;;;;;4989071;28;20105;-66
2022/02/11 16:16:42;;;;;;;8.77;3.25;;;;;;;;;;5008386;28;20124;-66
2022/02/11 16:19:08;;;;;;;4.40;2.05;;;;;;;;;;4987635;28;20205;-66
2022/02/11 16:21:33;;;;;;;11.82;4.80;;;;;;;;;;4995263;28;20739;-66
2022/02/11 16:23:58;;;;;;;7.07;2.30;;;;;;;;;;4995721;28;20093;-66
2022/02/11 16:26:23;;;;;;;6.57;1.90;;;;;;;;;;4989012;28;20117;-66
2022/02/11 16:28:48;;;;;;;5.70;1.93;;;;;;;;;;4988299;28;20078;-66
2022/02/11 16:31:18;;;;;;;2.03;1.40;;;;;;;;;;4995437;28;20103;-65
2022/02/11 16:33:43;;;;;;;8.88;1.80;;;;;;;;;;4995363;28;20099;-66
2022/02/11 16:36:08;;;;;;;7.00;1.33;;;;;;;;;;4992344;28;20071;-66
2022/02/11 16:38:34;;;;;;;4.53;1.50;;;;;;;;;;4998432;28;20105;-66
2022/02/11 16:40:59;;;;;;;5.13;1.63;;;;;;;;;;4999098;28;20449;-66
2022/02/11 16:43:25;;;;;;;6.90;1.67;;;;;;;;;;5001389;28;20496;-66
2022/02/11 16:45:50;;;;;;;3.85;1.55;;;;;;;;;;4993902;28;20094;-66
2022/02/11 16:48:15;;;;;;;5.93;1.83;;;;;;;;;;4998695;28;20067;-66
2022/02/11 16:50:40;;;;;;;11.37;1.97;;;;;;;;;;4998338;28;20098;-66
2022/02/11 16:53:06;;;;;;;5.20;1.90;;;;;;;;;;5000500;28;20310;-66
2022/02/11 16:55:31;;;;;;;8.80;2.93;;;;;;;;;;4994031;28;20290;-66
2022/02/11 16:57:57;;;;;;;6.85;2.03;;;;;;;;;;4997466;28;20102;-66
2022/02/11 17:00:22;;;;;;;4.97;2.10;;;;;;;;;;4996995;28;20140;-66
2022/02/11 17:02:47;;;;;;;9.50;1.90;;;;;;;;;;4999721;28;20304;-66
2022/02/11 17:05:13;;;;;;;12.90;3.50;;;;;;;;;;4996784;28;20075;-66
2022/02/11 17:07:39;;;;;;;13.03;3.43;;;;;;;;;;4997794;28;20086;-66
2022/02/11 17:10:05;;;;;;;11.43;3.28;;;;;;;;;;4996353;28;20126;-66
2022/02/11 17:12:31;;;;;;;8.93;5.25;;;;;;;;;;4998627;28;20070;-66
2022/02/11 17:14:56;;;;;;;16.45;3.88;;;;;;;;;;4997517;28;20205;-66
2022/02/11 17:17:22;;;;;;;6.50;2.10;;;;;;;;;;4999029;28;20120;-66
2022/02/11 17:19:47;;;;;;;4.80;2.13;;;;;;;;;;4994108;28;20085;-66
2022/02/11 17:22:12;;;;;;;12.35;3.75;;;;;;;;;;4994978;28;20094;-66
2022/02/11 17:24:38;;;;;;;12.67;6.07;;;;;;;;;;4996969;28;20467;-66
2022/02/11 17:27:03;;;;;;;10.00;4.30;;;;;;;;;;4998170;28;20338;-66
2022/02/11 17:29:28;;;;;;;14.27;4.72;;;;;;;;;;4999151;28;20488;-66
2022/02/11 17:31:54;;;;;;;7.80;3.87;;;;;;;;;;4997794;28;20559;-66
2022/02/11 17:34:19;;;;;;;9.03;3.30;;;;;;;;;;4999323;28;20101;-66
2022/02/11 17:36:44;;;;;;;8.82;3.70;;;;;;;;;;4999512;28;20455;-66
2022/02/11 17:39:09;;;;;;;10.73;4.77;;;;;;;;;;4998438;28;20606;-66
2022/02/11 17:41:35;;;;;;;14.13;5.37;;;;;;;;;;4997560;28;20340;-66
2022/02/11 17:44:01;;;;;;;13.93;4.45;;;;;;;;;;5000555;28;20321;-66
2022/02/11 17:46:26;;;;;;;12.40;6.18;;;;;;;;;;5000672;28;20114;-66
2022/02/11 17:48:52;;;;;;;12.80;6.75;;;;;;;;;;4999827;28;20075;-66
2022/02/11 17:51:17;;;;;;;14.02;7.05;;;;;;;;;;4999610;28;20148;-66
2022/02/11 17:53:42;;;;;;;14.37;8.20;;;;;;;;;;5009478;28;20110;-66
2022/02/11 17:56:08;;;;;;;12.47;7.30;;;;;;;;;;4992226;28;20075;-66
2022/02/11 17:58:34;;;;;;;13.35;5.95;;;;;;;;;;4999378;28;20106;-66
2022/02/11 18:01:00;;;;;;;15.35;8.68;;;;;;;;;;5003845;28;20086;-66
2022/02/11 18:03:26;;;;;;;15.35;8.70;;;;;;;;;;4999807;28;20548;-66
2022/02/11 18:05:51;;;;;;;14.30;8.13;;;;;;;;;;4989909;28;20106;-66
2022/02/11 18:08:16;;;;;;;13.07;7.17;;;;;;;;;;4987813;28;20630;-66
2022/02/11 18:10:41;;;;;;;11.43;6.87;;;;;;;;;;4993041;28;20337;-66
2022/02/11 18:13:07;;;;;;;12.73;5.20;;;;;;;;;;4997873;28;20808;-66
2022/02/11 18:15:32;;;;;;;14.40;5.70;;;;;;;;;;4999692;28;20075;-66
2022/02/11 18:17:58;;;;;;;12.73;7.20;;;;;;;;;;4996041;28;20125;-66
2022/02/11 18:20:26;;;;;;;12.00;6.00;;;;;;;;;;4989329;28;20377;-66
2022/02/11 18:22:52;;;;;;;15.27;7.82;;;;;;;;;;4995676;28;20103;-66
2022/02/11 18:25:17;;;;;;;14.90;5.65;;;;;;;;;;4989572;28;20534;-66
2022/02/11 18:27:42;;;;;;;17.57;4.87;;;;;;;;;;4993468;28;20083;-66
2022/02/11 18:30:09;;;;;;;14.50;4.38;;;;;;;;;;4988871;28;20110;-66
2022/02/11 18:32:34;;;;;;;12.20;3.55;;;;;;;;;;4986640;28;20093;-66
2022/02/11 18:34:59;;;;;;;9.02;3.67;;;;;;;;;;4998964;28;20098;-66